createdAt,value
2018-06-20T00:01:15.994Z,82.35
2018-06-20T00:03:45.177Z,82.66
2018-06-20T00:06:14.492Z,82.55
2018-06-20T00:08:46.632Z,83.39
2018-06-20T00:11:16.144Z,82.93
2018-06-20T00:13:45.763Z,83.95
2018-06-20T00:16:14.979Z,84.30
2018-06-20T00:18:44.453Z,85.44
2018-06-20T00:21:14.353Z,85.69
2018-06-20T00:23:43.678Z,85.69
2018-06-20T00:26:12.707Z,85.15
2018-06-20T00:28:42.112Z,85.23
2018-06-20T00:31:11.063Z,84.67
2018-06-20T00:33:40.335Z,84.61
2018-06-20T00:36:09.887Z,85.08
2018-06-20T00:38:39.033Z,85.25
2018-06-20T00:41:08.358Z,84.83
2018-06-20T00:43:37.977Z,85.82
2018-06-20T00:46:06.940Z,85.29
2018-06-20T00:48:36.582Z,85.78
2018-06-20T00:51:05.761Z,85.78
2018-06-20T00:53:35.450Z,85.50
2018-06-20T00:56:15.276Z,85.44
2018-06-20T00:58:44.746Z,85.91
2018-06-20T01:01:14.024Z,85.58
2018-06-20T01:03:42.903Z,85.92
2018-06-20T01:06:11.878Z,86.36
2018-06-20T01:08:41.598Z,86.04
2018-06-20T01:11:11.325Z,86.01
2018-06-20T01:13:40.196Z,87.06
2018-06-20T01:16:09.418Z,87.29
2018-06-20T01:18:38.603Z,87.08
2018-06-20T01:21:07.699Z,87.31
2018-06-20T01:23:36.731Z,87.14
2018-06-20T01:26:06.153Z,87.44
2018-06-20T01:28:35.018Z,87.60
2018-06-20T01:31:04.010Z,87.06
2018-06-20T01:33:32.855Z,87.67
2018-06-20T01:36:01.747Z,87.86
2018-06-20T01:38:30.959Z,87.99
2018-06-20T01:41:00.271Z,87.67
2018-06-20T01:43:29.517Z,88.20
2018-06-20T01:45:58.834Z,87.68
2018-06-20T01:48:27.985Z,88.48
2018-06-20T01:50:58.225Z,88.15
2018-06-20T01:53:27.358Z,88.34
2018-06-20T01:55:56.553Z,88.06
2018-06-20T01:58:25.772Z,88.58
2018-06-20T02:00:54.972Z,88.61
2018-06-20T02:03:23.860Z,88.51
2018-06-20T02:05:53.411Z,89.20
2018-06-20T02:08:22.591Z,88.77
2018-06-20T02:10:51.462Z,89.41
2018-06-20T02:13:20.678Z,89.74
2018-06-20T02:15:50.108Z,89.52
2018-06-20T02:18:19.119Z,89.43
2018-06-20T02:20:48.302Z,89.87
2018-06-20T02:23:17.172Z,89.94
2018-06-20T02:25:47.296Z,89.85
2018-06-20T02:28:16.820Z,89.69
2018-06-20T02:30:46.274Z,89.65
2018-06-20T02:33:15.179Z,90.04
2018-06-20T02:35:44.055Z,89.36
2018-06-20T02:38:13.299Z,89.47
2018-06-20T02:40:42.610Z,90.06
2018-06-20T02:43:11.829Z,89.78
2018-06-20T02:45:40.946Z,89.92
2018-06-20T02:48:10.381Z,89.91
2018-06-20T02:50:40.014Z,89.47
2018-06-20T02:53:09.149Z,89.92
2018-06-20T02:55:38.649Z,90.02
2018-06-20T02:58:07.518Z,89.66
2018-06-20T03:00:36.398Z,89.44
2018-06-20T03:03:05.294Z,89.56
2018-06-20T03:05:34.239Z,89.56
2018-06-20T03:08:03.673Z,89.48
2018-06-20T03:10:32.532Z,90.19
2018-06-20T03:13:01.700Z,90.30
2018-06-20T03:15:31.087Z,90.65
2018-06-20T03:18:00.317Z,90.25
2018-06-20T03:20:29.214Z,90.79
2018-06-20T03:22:58.415Z,90.94
2018-06-20T03:25:28.127Z,91.40
2018-06-20T03:27:57.261Z,91.49
2018-06-20T03:30:26.138Z,91.56
2018-06-20T03:32:55.310Z,92.10
2018-06-20T03:35:24.506Z,91.90
2018-06-20T03:37:53.655Z,91.93
2018-06-20T03:40:23.436Z,92.38
2018-06-20T03:42:52.284Z,92.24
2018-06-20T03:45:21.464Z,92.79
2018-06-20T03:47:50.930Z,92.90
2018-06-20T03:50:20.457Z,93.14
2018-06-20T03:52:49.321Z,92.92
2018-06-20T03:55:18.464Z,93.21
2018-06-20T03:57:47.713Z,92.98
2018-06-20T04:00:17.118Z,93.39
2018-06-20T04:02:45.995Z,93.25
2018-06-20T04:05:15.409Z,93.29
2018-06-20T04:07:44.493Z,93.34
2018-06-20T04:10:13.721Z,93.23
2018-06-20T04:12:42.848Z,93.24
2018-06-20T04:15:12.013Z,93.31
2018-06-20T04:17:41.151Z,93.83
2018-06-20T04:20:10.440Z,94.26
2018-06-20T04:22:39.300Z,93.89
2018-06-20T04:25:08.201Z,94.86
2018-06-20T04:27:37.361Z,94.71
2018-06-20T04:30:06.223Z,95.33
2018-06-20T04:32:35.362Z,94.92
2018-06-20T04:35:04.239Z,95.64
2018-06-20T04:37:33.066Z,95.56
2018-06-20T04:40:01.959Z,95.80
2018-06-20T04:42:30.855Z,95.75
2018-06-20T04:44:59.717Z,96.21
2018-06-20T04:47:28.616Z,96.75
2018-06-20T04:49:57.453Z,97.18
2018-06-20T04:52:27.380Z,97.76
2018-06-20T04:54:56.589Z,98.08
2018-06-20T04:57:25.759Z,98.73
2018-06-20T04:59:54.607Z,99.20
2018-06-20T05:02:23.684Z,99.74
2018-06-20T05:04:53.178Z,100.00
2018-06-20T05:07:22.666Z,100.00
2018-06-20T05:09:51.918Z,100.00
2018-06-20T05:12:21.361Z,100.00
2018-06-20T05:14:50.461Z,100.00
2018-06-20T05:17:19.377Z,100.00
2018-06-20T05:19:48.253Z,100.00
2018-06-20T05:22:17.419Z,100.00
2018-06-20T05:24:46.546Z,99.63
2018-06-20T05:27:15.437Z,99.82
2018-06-20T05:29:44.596Z,99.27
2018-06-20T05:32:13.786Z,98.52
2018-06-20T05:34:43.006Z,99.03
2018-06-20T05:37:12.255Z,98.45
2018-06-20T05:39:41.694Z,98.01
2018-06-20T05:42:10.558Z,97.15
2018-06-20T05:44:39.899Z,96.45
2018-06-20T05:47:09.596Z,96.92
2018-06-20T05:49:38.419Z,96.98
2018-06-20T05:52:07.657Z,96.48
2018-06-20T05:54:37.570Z,96.24
2018-06-20T05:57:06.738Z,95.55
2018-06-20T05:59:35.612Z,95.23
2018-06-20T06:02:04.585Z,94.82
2018-06-20T06:04:33.496Z,93.34
2018-06-20T06:07:02.354Z,94.03
2018-06-20T06:09:31.706Z,93.84
2018-06-20T06:12:00.609Z,93.12
2018-06-20T06:14:29.537Z,91.72
2018-06-20T06:16:58.766Z,91.25
2018-06-20T06:19:27.657Z,90.70
2018-06-20T06:21:56.950Z,89.83
2018-06-20T06:24:26.677Z,88.27
2018-06-20T06:26:56.474Z,87.99
2018-06-20T06:29:25.513Z,87.40
2018-06-20T06:31:54.529Z,86.98
2018-06-20T06:34:23.443Z,87.49
2018-06-20T06:36:52.360Z,85.80
2018-06-20T06:39:21.305Z,85.36
2018-06-20T06:41:50.579Z,84.59
2018-06-20T06:44:19.696Z,84.66
2018-06-20T06:46:49.251Z,84.17
2018-06-20T06:49:18.563Z,83.24
2018-06-20T06:51:47.977Z,82.85
2018-06-20T06:54:17.324Z,81.43
2018-06-20T06:56:46.482Z,81.99
2018-06-20T06:59:15.353Z,80.71
2018-06-20T07:01:44.178Z,80.93
2018-06-20T07:04:13.589Z,79.05
2018-06-20T07:06:43.131Z,79.69
2018-06-20T07:09:12.532Z,78.09
2018-06-20T07:11:41.727Z,77.90
2018-06-20T07:14:10.954Z,77.58
2018-06-20T07:16:39.818Z,77.09
2018-06-20T07:19:08.634Z,76.22
2018-06-20T07:21:37.969Z,75.61
2018-06-20T07:24:07.177Z,76.68
2018-06-20T07:26:36.357Z,76.16
2018-06-20T07:29:05.590Z,75.48
2018-06-20T07:31:34.756Z,72.93
2018-06-20T07:34:04.019Z,72.52
2018-06-20T07:36:33.162Z,72.68
2018-06-20T07:39:02.101Z,72.11
2018-06-20T07:41:31.608Z,70.90
2018-06-20T07:44:01.225Z,70.44
2018-06-20T07:46:30.446Z,70.32
2018-06-20T07:48:59.276Z,70.87
2018-06-20T07:51:28.446Z,70.25
2018-06-20T07:53:57.595Z,69.95
2018-06-20T07:56:27.044Z,69.32
2018-06-20T07:58:57.211Z,68.17
2018-06-20T08:01:42.601Z,70.18
2018-06-20T08:04:17.035Z,68.92
2018-06-20T08:06:51.445Z,67.88
2018-06-20T08:09:25.675Z,67.00
2018-06-20T08:12:00.207Z,65.61
2018-06-20T08:14:34.755Z,66.21
2018-06-20T08:17:10.853Z,66.85
2018-06-20T08:19:45.539Z,65.86
2018-06-20T08:22:18.506Z,65.40
2018-06-20T08:25:03.460Z,64.98
2018-06-20T08:27:33.458Z,65.52
2018-06-20T08:30:03.877Z,64.02
2018-06-20T08:32:33.842Z,64.12
2018-06-20T08:35:03.316Z,63.92
2018-06-20T08:37:32.579Z,63.93
2018-06-20T08:40:01.921Z,62.61
2018-06-20T08:42:31.613Z,62.30
2018-06-20T08:45:00.792Z,63.01
2018-06-20T08:47:30.056Z,62.25
2018-06-20T08:49:59.162Z,62.57
2018-06-20T08:52:28.640Z,62.13
2018-06-20T08:54:57.414Z,63.78
2018-06-20T08:57:26.491Z,62.16
2018-06-20T08:59:55.947Z,63.25
2018-06-20T09:02:25.037Z,63.46
2018-06-20T09:04:59.555Z,63.14
2018-06-20T09:07:34.119Z,63.16
2018-06-20T09:10:07.984Z,62.81
2018-06-20T09:12:41.996Z,63.31
2018-06-20T09:15:16.306Z,63.30
2018-06-20T09:17:50.240Z,63.26
2018-06-20T09:20:19.529Z,60.65
2018-06-20T09:22:48.946Z,60.82
2018-06-20T09:25:18.029Z,61.93
2018-06-20T09:27:47.147Z,62.32
2018-06-20T09:30:16.767Z,63.04
2018-06-20T09:32:46.364Z,61.09
2018-06-20T09:35:15.526Z,60.80
2018-06-20T09:37:45.283Z,60.96
2018-06-20T09:40:14.745Z,59.66
2018-06-20T09:42:43.544Z,59.47
2018-06-20T09:45:12.418Z,59.17
2018-06-20T09:47:41.532Z,58.69
2018-06-20T09:50:15.848Z,59.70
2018-06-20T09:52:45.030Z,59.14
2018-06-20T09:55:13.892Z,59.47
2018-06-20T09:57:42.986Z,59.51
2018-06-20T10:00:17.106Z,58.43
2018-06-20T10:02:51.393Z,59.10
2018-06-20T10:05:25.768Z,58.59
2018-06-20T10:08:59.614Z,56.09
2018-06-20T10:11:33.450Z,55.75
2018-06-20T10:14:03.477Z,55.87
2018-06-20T10:16:32.414Z,55.17
2018-06-20T10:19:02.018Z,54.64
2018-06-20T10:21:31.243Z,54.85
2018-06-20T10:24:00.376Z,54.92
2018-06-20T10:26:29.581Z,56.25
2018-06-20T10:28:58.710Z,53.96
2018-06-20T10:31:27.828Z,55.81
2018-06-20T10:33:57.533Z,54.32
2018-06-20T10:36:26.714Z,54.61
2018-06-20T10:38:56.243Z,53.78
2018-06-20T10:41:25.095Z,54.17
2018-06-20T10:43:53.972Z,55.42
2018-06-20T10:46:27.921Z,54.86
2018-06-20T10:48:57.952Z,54.24
2018-06-20T10:51:27.401Z,52.69
2018-06-20T10:54:00.591Z,53.77
2018-06-20T10:56:34.962Z,54.50
2018-06-20T10:59:09.144Z,53.31
2018-06-20T11:02:42.999Z,53.67
2018-06-20T11:05:17.182Z,54.04
2018-06-20T11:07:51.116Z,54.51
2018-06-20T11:10:25.047Z,53.53
2018-06-20T11:12:55.492Z,53.94
2018-06-20T11:15:24.860Z,53.60
2018-06-20T11:17:53.685Z,52.74
2018-06-20T11:20:27.898Z,52.63
2018-06-20T11:22:57.084Z,52.66
2018-06-20T11:25:26.300Z,52.05
2018-06-20T11:27:55.939Z,51.61
2018-06-20T11:30:25.381Z,50.31
2018-06-20T11:32:54.632Z,50.52
2018-06-20T11:35:23.516Z,49.72
2018-06-20T11:37:53.360Z,50.27
2018-06-20T11:40:22.189Z,51.11
2018-06-20T11:42:51.338Z,51.21
2018-06-20T11:45:21.048Z,50.31
2018-06-20T11:47:50.474Z,49.98
2018-06-20T11:50:19.656Z,50.89
2018-06-20T11:52:54.040Z,47.91
2018-06-20T11:55:28.555Z,48.48
2018-06-20T11:58:02.630Z,48.33
2018-06-20T12:00:36.742Z,47.96
2018-06-20T12:03:11.448Z,48.01
2018-06-20T12:05:45.268Z,47.24
2018-06-20T12:08:19.477Z,48.16
2018-06-20T12:10:53.631Z,48.66
2018-06-20T12:13:27.752Z,48.27
2018-06-20T12:16:01.704Z,47.67
2018-06-20T12:18:35.737Z,48.08
2018-06-20T12:21:10.077Z,46.86
2018-06-20T12:23:44.391Z,47.25
2018-06-20T12:26:18.602Z,47.69
2018-06-20T12:28:52.643Z,48.36
2018-06-20T12:31:26.525Z,47.18
2018-06-20T12:34:01.129Z,46.87
2018-06-20T12:36:35.109Z,47.01
2018-06-20T12:39:03.088Z,46.13
2018-06-20T12:41:37.947Z,45.03
2018-06-20T12:44:30.521Z,45.28
2018-06-20T12:47:02.047Z,44.48
2018-06-20T12:49:35.004Z,45.04
2018-06-20T12:52:03.928Z,45.40
2018-06-20T12:54:33.517Z,45.36
2018-06-20T12:57:02.690Z,45.86
2018-06-20T12:59:31.803Z,47.00
2018-06-20T13:02:00.911Z,45.48
2018-06-20T13:04:29.639Z,45.94
2018-06-20T13:06:58.393Z,45.41
2018-06-20T13:09:27.459Z,43.88
2018-06-20T13:11:56.551Z,44.36
2018-06-20T13:14:25.697Z,44.93
2018-06-20T13:16:54.996Z,45.36
2018-06-20T13:19:23.742Z,45.09
2018-06-20T13:21:53.015Z,45.10
2018-06-20T13:24:22.164Z,44.04
2018-06-20T13:26:51.047Z,44.16
2018-06-20T13:29:19.767Z,44.74
2018-06-20T13:31:53.959Z,43.96
2018-06-20T13:34:28.463Z,43.89
2018-06-20T13:37:02.529Z,44.47
2018-06-20T13:39:36.678Z,44.55
2018-06-20T13:42:08.694Z,43.44
2018-06-20T13:44:37.771Z,43.68
2018-06-20T13:47:11.855Z,42.50
2018-06-20T13:49:41.083Z,42.63
2018-06-20T13:52:10.229Z,43.18
2018-06-20T13:54:39.419Z,42.84
2018-06-20T13:57:09.004Z,42.38
2018-06-20T13:59:37.775Z,41.69
2018-06-20T14:02:06.681Z,42.95
2018-06-20T14:04:35.776Z,43.53
2018-06-20T14:07:04.902Z,43.48
2018-06-20T14:09:34.091Z,43.53
2018-06-20T14:12:03.188Z,43.45
2018-06-20T14:14:32.804Z,44.21
2018-06-20T14:17:02.344Z,44.14
2018-06-20T14:19:36.378Z,43.47
2018-06-20T14:22:05.764Z,44.64
2018-06-20T14:24:34.813Z,42.57
2018-06-20T14:27:03.857Z,43.81
2018-06-20T14:29:37.652Z,43.00
2018-06-20T14:32:11.894Z,44.23
2018-06-20T14:34:46.171Z,43.44
2018-06-20T14:38:19.079Z,42.27
2018-06-20T14:40:53.463Z,42.43
2018-06-20T14:43:27.687Z,43.56
2018-06-20T14:46:01.609Z,42.36
2018-06-20T14:48:31.174Z,42.49
2018-06-20T14:51:00.762Z,42.58
2018-06-20T14:53:29.608Z,42.41
2018-06-20T14:55:58.432Z,42.56
2018-06-20T14:58:27.655Z,43.11
2018-06-20T15:00:57.116Z,43.71
2018-06-20T15:03:25.993Z,44.79
2018-06-20T15:05:55.008Z,43.23
2018-06-20T15:08:24.186Z,42.33
2018-06-20T15:10:53.783Z,42.59
2018-06-20T15:13:23.106Z,43.85
2018-06-20T15:15:52.295Z,43.68
2018-06-20T15:18:21.254Z,43.75
2018-06-20T15:20:50.097Z,43.38
2018-06-20T15:23:19.414Z,43.23
2018-06-20T15:25:53.537Z,43.16
2018-06-20T15:28:27.847Z,42.37
2018-06-20T15:31:05.018Z,43.11
2018-06-20T15:33:39.258Z,43.31
2018-06-20T15:36:13.707Z,43.02
2018-06-20T15:38:42.968Z,43.30
2018-06-20T15:41:12.523Z,43.08
2018-06-20T15:43:42.395Z,43.26
2018-06-20T15:46:12.631Z,43.51
2018-06-20T15:48:42.716Z,44.11
2018-06-20T15:51:12.170Z,44.50
2018-06-20T15:53:41.163Z,44.66
2018-06-20T15:56:10.605Z,44.38
2018-06-20T15:58:39.597Z,44.50
2018-06-20T16:01:08.727Z,45.02
2018-06-20T16:03:38.160Z,44.84
2018-06-20T16:06:07.067Z,45.17
2018-06-20T16:08:42.067Z,44.03
2018-06-20T16:11:11.005Z,44.32
2018-06-20T16:13:40.532Z,45.11
2018-06-20T16:16:11.441Z,45.50
2018-06-20T16:18:44.985Z,44.65
2018-06-20T16:21:19.293Z,44.49
2018-06-20T16:23:53.634Z,45.86
2018-06-20T16:26:27.553Z,46.38
2018-06-20T16:29:03.509Z,45.97
2018-06-20T16:31:32.804Z,44.52
2018-06-20T16:34:02.561Z,45.34
2018-06-20T16:36:31.764Z,47.50
2018-06-20T16:39:00.694Z,47.26
2018-06-20T16:41:29.594Z,48.10
2018-06-20T16:43:58.485Z,47.86
2018-06-20T16:46:27.728Z,46.99
2018-06-20T16:48:57.304Z,47.36
2018-06-20T16:51:26.654Z,47.21
2018-06-20T16:53:55.523Z,48.36
2018-06-20T16:56:24.404Z,47.62
2018-06-20T16:58:53.989Z,47.18
2018-06-20T17:01:28.011Z,47.87
2018-06-20T17:03:57.148Z,46.55
2018-06-20T17:06:26.591Z,46.31
2018-06-20T17:08:55.403Z,46.57
2018-06-20T17:11:25.272Z,46.09
2018-06-20T17:13:59.290Z,47.09
2018-06-20T17:16:33.603Z,47.67
2018-06-20T17:19:07.638Z,47.99
2018-06-20T17:21:42.092Z,47.63
2018-06-20T17:24:16.280Z,47.50
2018-06-20T17:26:45.485Z,47.90
2018-06-20T17:29:15.025Z,47.41
2018-06-20T17:31:45.238Z,46.98
2018-06-20T17:34:14.815Z,47.96
2018-06-20T17:36:44.301Z,47.81
2018-06-20T17:39:14.565Z,47.20
2018-06-20T17:41:43.629Z,47.58
2018-06-20T17:44:13.050Z,49.23
2018-06-20T17:46:42.178Z,49.87
2018-06-20T17:49:11.692Z,49.52
2018-06-20T17:51:41.570Z,50.92
2018-06-20T17:54:11.807Z,50.11
2018-06-20T17:56:41.244Z,50.73
2018-06-20T17:59:10.770Z,50.51
2018-06-20T18:01:40.380Z,51.68
2018-06-20T18:04:10.020Z,51.77
2018-06-20T18:06:44.726Z,52.11
2018-06-20T18:09:19.399Z,53.22
2018-06-20T18:11:53.477Z,52.62
2018-06-20T18:14:27.958Z,53.14
2018-06-20T18:16:59.720Z,54.13
2018-06-20T18:19:30.070Z,54.35
2018-06-20T18:21:59.334Z,54.17
2018-06-20T18:24:28.529Z,54.75
2018-06-20T18:26:58.219Z,54.52
2018-06-20T18:29:27.949Z,55.19
2018-06-20T18:31:57.485Z,55.44
2018-06-20T18:34:26.935Z,56.06
2018-06-20T18:36:56.375Z,56.84
2018-06-20T18:39:25.858Z,57.00
2018-06-20T18:41:55.166Z,57.81
2018-06-20T18:44:24.223Z,57.76
2018-06-20T18:46:54.046Z,58.50
2018-06-20T18:49:23.618Z,57.95
2018-06-20T18:51:58.384Z,58.67
2018-06-20T18:54:27.687Z,58.96
2018-06-20T18:56:56.796Z,59.63
2018-06-20T18:59:31.155Z,60.44
2018-06-20T19:02:05.353Z,60.31
2018-06-20T19:04:39.618Z,61.23
2018-06-20T19:07:13.683Z,61.43
2018-06-20T19:09:42.975Z,61.02
2018-06-20T19:12:12.562Z,61.17
2018-06-20T19:14:41.745Z,61.44
2018-06-20T19:17:10.913Z,61.63
2018-06-20T19:19:40.400Z,62.40
2018-06-20T19:22:09.578Z,62.02
2018-06-20T19:24:38.883Z,62.61
2018-06-20T19:27:08.323Z,62.31
2018-06-20T19:29:37.971Z,62.54
2018-06-20T19:32:06.880Z,63.03
2018-06-20T19:34:36.413Z,62.66
2018-06-20T19:37:05.379Z,63.31
2018-06-20T19:39:39.771Z,62.82
2018-06-20T19:42:09.680Z,63.37
2018-06-20T19:44:39.138Z,63.43
2018-06-20T19:47:08.189Z,63.26
2018-06-20T19:49:37.330Z,63.30
2018-06-20T19:52:06.571Z,63.09
2018-06-20T19:54:36.024Z,62.44
2018-06-20T19:57:05.572Z,62.46
2018-06-20T19:59:35.340Z,63.20
2018-06-20T20:02:04.512Z,63.13
2018-06-20T20:04:33.945Z,63.07
2018-06-20T20:07:03.129Z,63.31
2018-06-20T20:09:32.668Z,62.87
2018-06-20T20:12:02.372Z,63.37
2018-06-20T20:14:32.228Z,63.59
2018-06-20T20:17:01.276Z,63.48
2018-06-20T20:19:30.945Z,64.39
2018-06-20T20:22:00.076Z,64.83
2018-06-20T20:24:29.749Z,64.80
2018-06-20T20:26:59.072Z,64.69
2018-06-20T20:29:28.656Z,65.62
2018-06-20T20:31:57.918Z,65.76
2018-06-20T20:34:27.164Z,65.44
2018-06-20T20:36:56.946Z,66.33
2018-06-20T20:39:26.875Z,66.56
2018-06-20T20:41:55.996Z,66.93
2018-06-20T20:44:25.635Z,66.69
2018-06-20T20:46:55.189Z,67.58
2018-06-20T20:49:24.368Z,67.81
2018-06-20T20:51:53.565Z,67.95
2018-06-20T20:54:22.595Z,68.07
2018-06-20T20:56:52.636Z,68.29
2018-06-20T20:59:21.945Z,68.93
2018-06-20T21:01:51.591Z,69.15
2018-06-20T21:04:21.116Z,69.78
2018-06-20T21:06:50.113Z,69.47
2018-06-20T21:09:19.165Z,69.95
2018-06-20T21:11:48.766Z,70.69
2018-06-20T21:14:18.079Z,70.84
2018-06-20T21:16:47.261Z,71.03
2018-06-20T21:19:16.399Z,70.81
2018-06-20T21:21:45.807Z,70.99
2018-06-20T21:24:15.464Z,71.10
2018-06-20T21:26:44.554Z,72.07
2018-06-20T21:29:14.228Z,72.54
2018-06-20T21:31:45.351Z,72.97
2018-06-20T21:34:14.989Z,73.01
2018-06-20T21:36:44.547Z,72.61
2018-06-20T21:39:13.925Z,73.01
2018-06-20T21:41:43.258Z,72.95
2018-06-20T21:44:12.445Z,72.85
2018-06-20T21:46:41.455Z,73.44
2018-06-20T21:49:10.955Z,73.93
2018-06-20T21:51:40.483Z,73.57
2018-06-20T21:54:09.713Z,73.27
2018-06-20T21:56:38.913Z,73.92
2018-06-20T21:59:08.445Z,73.67
2018-06-20T22:01:37.647Z,73.44
2018-06-20T22:04:06.682Z,73.34
2018-06-20T22:06:36.433Z,73.32
2018-06-20T22:09:09.258Z,73.47
2018-06-20T22:11:39.120Z,74.08
2018-06-20T22:14:09.490Z,73.46
2018-06-20T22:16:39.597Z,73.86
2018-06-20T22:19:08.761Z,73.66
2018-06-20T22:21:37.944Z,73.78
2018-06-20T22:24:06.896Z,73.91
2018-06-20T22:26:35.707Z,74.35
2018-06-20T22:29:05.472Z,73.83
2018-06-20T22:31:35.036Z,73.86
2018-06-20T22:34:04.112Z,74.78
2018-06-20T22:36:33.268Z,75.10
2018-06-20T22:39:02.169Z,74.85
2018-06-20T22:41:32.178Z,74.97
2018-06-20T22:44:01.738Z,75.46
2018-06-20T22:46:30.877Z,74.90
2018-06-20T22:49:00.543Z,74.84
2018-06-20T22:51:29.493Z,75.70
2018-06-20T22:53:59.001Z,75.95
2018-06-20T22:56:28.022Z,75.87
2018-06-20T22:58:59.528Z,76.15
2018-06-20T23:01:28.736Z,76.42
2018-06-20T23:03:59.126Z,76.50
2018-06-20T23:06:28.510Z,76.38
2018-06-20T23:08:58.261Z,76.81
2018-06-20T23:11:28.546Z,76.98
2018-06-20T23:13:58.396Z,77.09
2018-06-20T23:16:27.960Z,77.25
2018-06-20T23:18:58.493Z,76.84
2018-06-20T23:21:28.268Z,76.97
2018-06-20T23:23:57.159Z,77.84
2018-06-20T23:26:27.182Z,77.95
2018-06-20T23:28:56.855Z,77.64
2018-06-20T23:31:26.371Z,77.81
2018-06-20T23:33:55.795Z,78.04
2018-06-20T23:36:25.387Z,78.07
2018-06-20T23:38:54.767Z,78.78
2018-06-20T23:41:23.782Z,78.91
2018-06-20T23:43:52.673Z,79.21
2018-06-20T23:46:21.620Z,79.02
2018-06-20T23:48:50.573Z,79.66
2018-06-20T23:51:19.795Z,79.63
2018-06-20T23:53:48.698Z,79.67
2018-06-20T23:56:17.930Z,79.68
2018-06-20T23:58:47.530Z,79.78
